Time;durP1;ratioP1;P1;durP2;ratioP2;P2;SDS_P1;SDS_P2;PMS_P1;PMS_P2;Temp;Humidity;BMP_temperature;BMP_pressure;BME280_temperature;BME280_humidity;BME280_pressure;Samples;Min_cycle;Max_cycle;Signal;HPM_P1;HPM_P2
2022/08/01 00:00:24;;;;;;;5.72;4.03;;;;;;;;;;6303014;28;20123;-80
2022/08/01 00:03:26;;;;;;;4.00;3.60;;;;;;;;;;6321077;28;20065;-80
2022/08/01 00:06:27;;;;;;;4.88;3.78;;;;;;;;;;6317357;28;20039;-80
2022/08/01 00:09:29;;;;;;;4.28;3.83;;;;;;;;;;6313822;28;20051;-82
2022/08/01 00:12:31;;;;;;;4.28;3.75;;;;;;;;;;6282660;28;20503;-81
2022/08/01 00:15:33;;;;;;;4.33;3.70;;;;;;;;;;6314398;28;20540;-81
2022/08/01 00:18:38;;;;;;;5.93;4.43;;;;;;;;;;6306362;28;20097;-81
2022/08/01 00:21:39;;;;;;;4.63;4.13;;;;;;;;;;6307797;28;20442;-81
2022/08/01 00:24:52;;;;;;;;;;;;;;;;;;6313852;28;20051;-80
2022/08/01 00:27:54;;;;;;;5.93;5.03;;;;;;;;;;6319227;28;19928;-83
2022/08/01 00:30:55;;;;;;;5.50;4.90;;;;;;;;;;6315329;28;20090;-81
2022/08/01 00:33:57;;;;;;;5.45;4.82;;;;;;;;;;6307980;28;20128;-81
2022/08/01 00:36:59;;;;;;;7.18;5.10;;;;;;;;;;6326502;28;20056;-81
2022/08/01 00:40:00;;;;;;;5.32;4.82;;;;;;;;;;6319929;28;20059;-80
2022/08/01 00:43:03;;;;;;;5.70;5.20;;;;;;;;;;6302632;28;20154;-81
2022/08/01 00:46:04;;;;;;;6.15;4.78;;;;;;;;;;6293340;28;20047;-81
2022/08/01 00:49:06;;;;;;;5.30;4.50;;;;;;;;;;6316178;28;20078;-81
2022/08/01 00:52:11;;;;;;;5.70;4.82;;;;;;;;;;6310848;28;20490;-80
2022/08/01 00:55:13;;;;;;;6.05;4.80;;;;;;;;;;6306522;28;20128;-81
2022/08/01 00:58:16;;;;;;;6.22;4.68;;;;;;;;;;6312201;28;20051;-80
2022/08/01 01:01:20;;;;;;;5.45;4.95;;;;;;;;;;6310026;28;20169;-81
2022/08/01 01:04:22;;;;;;;6.72;5.47;;;;;;;;;;6321639;28;20486;-81
2022/08/01 01:07:35;;;;;;;6.70;5.63;;;;;;;;;;6297348;28;20051;-80
2022/08/01 01:10:45;;;;;;;;;;;;;;;;;;6332885;28;20048;-80
2022/08/01 01:13:52;;;;;;;6.40;4.97;;;;;;;;;;6329564;28;19985;-81
2022/08/01 01:16:55;;;;;;;6.85;5.47;;;;;;;;;;6313281;28;20051;-80
2022/08/01 01:20:00;;;;;;;8.07;5.60;;;;;;;;;;6325777;28;20044;-80
2022/08/01 01:23:23;;;;;;;8.93;5.55;;;;;;;;;;6312146;28;20494;-80
2022/08/01 01:26:45;;;;;;;5.88;4.80;;;;;;;;;;6320818;28;20074;-80
2022/08/01 01:29:55;;;;;;;5.40;4.90;;;;;;;;;;6325521;28;20036;-79
2022/08/01 01:33:05;;;;;;;6.00;4.50;;;;;;;;;;6324414;28;20425;-79
2022/08/01 01:36:11;;;;;;;5.70;4.70;;;;;;;;;;6306919;28;20126;-81
2022/08/01 01:39:15;;;;;;;5.57;4.97;;;;;;;;;;6293673;28;20526;-80
2022/08/01 01:42:17;;;;;;;5.35;4.50;;;;;;;;;;6300831;28;20070;-81
2022/08/01 01:45:19;;;;;;;;;;;;;;;;;;6325164;28;20052;-81
2022/08/01 01:48:24;;;;;;;5.38;4.60;;;;;;;;;;6319176;28;19983;-81
2022/08/01 01:51:27;;;;;;;7.47;4.95;;;;;;;;;;6304198;28;20047;-81
2022/08/01 01:54:34;;;;;;;6.07;5.47;;;;;;;;;;6329639;28;20075;-81
2022/08/01 01:57:40;;;;;;;5.85;4.97;;;;;;;;;;6322202;28;20443;-79
2022/08/01 02:00:44;;;;;;;6.13;5.53;;;;;;;;;;6312140;28;20148;-82
2022/08/01 02:03:48;;;;;;;6.22;5.30;;;;;;;;;;6305806;28;20509;-80
2022/08/01 02:06:51;;;;;;;8.13;5.47;;;;;;;;;;6301469;28;20128;-81
2022/08/01 02:09:54;;;;;;;8.13;5.43;;;;;;;;;;6320987;28;20043;-80
2022/08/01 02:12:58;;;;;;;8.63;6.05;;;;;;;;;;6319455;28;20046;-80
2022/08/01 02:16:00;;;;;;;7.88;5.97;;;;;;;;;;6320449;28;20064;-80
2022/08/01 02:19:02;;;;;;;7.68;6.53;;;;;;;;;;6319609;28;20134;-81
2022/08/01 02:22:07;;;;;;;7.53;6.72;;;;;;;;;;6312017;28;20072;-79
2022/08/01 02:25:26;;;;;;;8.63;6.88;;;;;;;;;;6322868;28;20166;-81
2022/08/01 02:28:30;;;;;;;7.68;6.70;;;;;;;;;;6318367;28;20058;-81
2022/08/01 02:31:38;;;;;;;9.25;6.80;;;;;;;;;;6329059;28;20044;-80
2022/08/01 02:34:42;;;;;;;7.65;6.40;;;;;;;;;;6325753;28;20052;-80
2022/08/01 02:37:45;;;;;;;8.15;6.53;;;;;;;;;;6310985;28;20123;-81
2022/08/01 02:40:52;;;;;;;8.70;6.70;;;;;;;;;;6322200;28;20133;-81
2022/08/01 02:44:00;;;;;;;8.90;6.85;;;;;;;;;;6322468;28;20062;-81
2022/08/01 02:47:03;;;;;;;8.10;6.53;;;;;;;;;;6300679;28;20082;-80
2022/08/01 02:50:07;;;;;;;7.78;6.50;;;;;;;;;;6323054;28;20503;-81
2022/08/01 02:53:12;;;;;;;8.20;5.93;;;;;;;;;;6324458;28;20097;-81
2022/08/01 02:56:16;;;;;;;6.68;5.85;;;;;;;;;;6317644;28;20497;-80
2022/08/01 02:59:24;;;;;;;6.75;5.97;;;;;;;;;;6298826;28;20044;-80
2022/08/01 03:02:27;;;;;;;8.40;5.90;;;;;;;;;;6331869;28;20096;-79
2022/08/01 03:05:31;;;;;;;6.65;5.95;;;;;;;;;;6303915;28;20036;-80
2022/08/01 03:08:36;;;;;;;8.98;6.28;;;;;;;;;;6301631;28;20056;-80
2022/08/01 03:11:40;;;;;;;5.85;5.25;;;;;;;;;;6325199;28;20052;-82
2022/08/01 03:14:44;;;;;;;7.70;5.90;;;;;;;;;;6324879;28;20052;-81
2022/08/01 03:17:51;;;;;;;6.63;5.93;;;;;;;;;;6307345;28;20051;-80
2022/08/01 03:20:55;;;;;;;7.45;6.40;;;;;;;;;;6290990;28;20047;-81
2022/08/01 03:24:00;;;;;;;8.43;6.50;;;;;;;;;;6313528;28;20048;-81
2022/08/01 03:27:03;;;;;;;7.70;5.60;;;;;;;;;;6283784;28;20039;-81
2022/08/01 03:30:06;;;;;;;;;;;;;;;;;;6326521;28;20039;-82
2022/08/01 03:33:09;;;;;;;6.45;5.18;;;;;;;;;;6295791;28;19925;-82
2022/08/01 03:36:17;;;;;;;6.75;5.65;;;;;;;;;;6316505;28;20080;-82
2022/08/01 03:39:24;;;;;;;6.13;5.53;;;;;;;;;;6326593;28;20035;-81
2022/08/01 03:42:37;;;;;;;7.82;6.07;;;;;;;;;;6310383;28;20064;-82
2022/08/01 03:45:40;;;;;;;7.57;6.28;;;;;;;;;;6304741;28;20123;-82
2022/08/01 03:48:46;;;;;;;9.57;7.10;;;;;;;;;;6324554;28;20210;-81
2022/08/01 03:51:50;;;;;;;8.77;6.82;;;;;;;;;;6316614;28;20055;-82
2022/08/01 03:54:56;;;;;;;8.43;6.80;;;;;;;;;;6299667;28;20067;-81
2022/08/01 03:57:59;;;;;;;13.05;7.60;;;;;;;;;;6324603;28;20132;-81
2022/08/01 04:01:01;;;;;;;10.50;7.65;;;;;;;;;;6307343;28;20043;-81
2022/08/01 04:04:05;;;;;;;9.35;7.70;;;;;;;;;;6330223;28;20046;-81
2022/08/01 04:07:25;;;;;;;10.18;7.78;;;;;;;;;;6322686;28;20067;-82
2022/08/01 04:10:26;;;;;;;11.20;7.50;;;;;;;;;;6299472;28;20120;-81
2022/08/01 04:13:28;;;;;;;9.00;7.28;;;;;;;;;;6313598;28;20043;-82
2022/08/01 04:16:38;;;;;;;10.90;7.25;;;;;;;;;;6318903;28;20040;-81
2022/08/01 04:19:39;;;;;;;8.40;7.28;;;;;;;;;;6319749;28;20039;-81
2022/08/01 04:22:41;;;;;;;9.20;7.05;;;;;;;;;;6296912;28;20343;-81
2022/08/01 04:25:45;;;;;;;9.30;8.00;;;;;;;;;;6314436;28;20127;-81
2022/08/01 04:28:49;;;;;;;8.63;7.60;;;;;;;;;;6277314;28;20040;-81
2022/08/01 04:31:54;;;;;;;8.90;6.85;;;;;;;;;;6300184;28;20124;-81
2022/08/01 04:34:59;;;;;;;7.78;6.68;;;;;;;;;;6301721;28;20531;-81
2022/08/01 04:38:02;;;;;;;8.90;7.18;;;;;;;;;;6318325;28;20044;-81
2022/08/01 04:41:06;;;;;;;;;;;;;;;;;;6315380;28;20055;-81
2022/08/01 04:44:09;;;;;;;10.63;7.53;;;;;;;;;;6302414;28;19928;-81
2022/08/01 04:47:11;;;;;;;11.50;8.80;;;;;;;;;;6311396;28;20032;-82
2022/08/01 04:50:13;;;;;;;12.98;8.88;;;;;;;;;;6320046;28;20075;-81
2022/08/01 04:53:17;;;;;;;12.93;9.23;;;;;;;;;;6293649;28;20105;-82
2022/08/01 04:56:20;;;;;;;11.75;9.48;;;;;;;;;;6281265;28;20051;-81
2022/08/01 04:59:40;;;;;;;11.05;8.40;;;;;;;;;;6307586;28;20497;-82
2022/08/01 05:02:42;;;;;;;11.02;9.15;;;;;;;;;;6315701;28;20501;-82
2022/08/01 05:05:43;;;;;;;10.52;8.45;;;;;;;;;;6302269;28;20157;-81
2022/08/01 05:08:45;;;;;;;12.30;8.48;;;;;;;;;;6296806;28;20077;-81
2022/08/01 05:11:47;;;;;;;12.70;8.82;;;;;;;;;;6312337;28;20529;-82
2022/08/01 05:14:49;;;;;;;13.15;9.00;;;;;;;;;;6301058;28;20048;-82
2022/08/01 05:17:50;;;;;;;11.48;9.20;;;;;;;;;;6317287;28;20134;-82
2022/08/01 05:20:52;;;;;;;11.77;9.27;;;;;;;;;;6308272;28;20082;-81
2022/08/01 05:23:53;;;;;;;12.65;9.10;;;;;;;;;;6310814;28;20123;-81
2022/08/01 05:26:56;;;;;;;13.05;9.05;;;;;;;;;;6312935;28;20040;-81
2022/08/01 05:29:58;;;;;;;12.35;9.57;;;;;;;;;;6310668;28;20056;-82
2022/08/01 05:32:59;;;;;;;11.55;8.77;;;;;;;;;;6294079;28;20055;-81
2022/08/01 05:36:01;;;;;;;12.07;9.05;;;;;;;;;;6318353;28;20478;-82
2022/08/01 05:39:03;;;;;;;11.35;8.35;;;;;;;;;;6313348;28;20044;-82
2022/08/01 05:42:05;;;;;;;13.38;8.95;;;;;;;;;;6312264;28;20130;-82
2022/08/01 05:45:08;;;;;;;12.55;8.95;;;;;;;;;;6303862;28;20507;-82
2022/08/01 05:48:10;;;;;;;12.50;8.73;;;;;;;;;;6302112;28;20411;-81
2022/08/01 05:51:11;;;;;;;13.43;8.50;;;;;;;;;;6306665;28;20443;-81
2022/08/01 05:54:13;;;;;;;11.82;8.30;;;;;;;;;;6314955;28;20039;-81
2022/08/01 05:57:15;;;;;;;11.38;8.18;;;;;;;;;;6299473;28;20047;-82
2022/08/01 06:00:16;;;;;;;10.35;8.50;;;;;;;;;;6321046;28;20124;-82
2022/08/01 06:03:18;;;;;;;12.00;8.20;;;;;;;;;;6307317;28;20067;-82
2022/08/01 06:06:21;;;;;;;11.82;8.77;;;;;;;;;;6325222;28;20052;-81
2022/08/01 06:09:25;;;;;;;13.20;8.95;;;;;;;;;;6288833;28;20040;-84
2022/08/01 06:12:27;;;;;;;11.55;8.98;;;;;;;;;;6315884;28;20131;-84
2022/08/01 06:15:35;;;;;;;10.73;8.77;;;;;;;;;;6301296;28;20062;-82
2022/08/01 06:18:37;;;;;;;12.70;8.93;;;;;;;;;;6317952;28;20088;-82
2022/08/01 06:21:39;;;;;;;11.73;8.13;;;;;;;;;;6316177;28;20052;-84
2022/08/01 06:24:40;;;;;;;11.23;8.65;;;;;;;;;;6304440;28;20062;-82
2022/08/01 06:27:42;;;;;;;12.95;8.50;;;;;;;;;;6295399;28;20406;-84
2022/08/01 06:30:46;;;;;;;11.68;8.02;;;;;;;;;;6273298;28;20085;-81
2022/08/01 06:33:47;;;;;;;12.45;8.15;;;;;;;;;;6318694;28;20040;-81
2022/08/01 06:36:49;;;;;;;11.55;8.68;;;;;;;;;;6311245;28;20568;-82
2022/08/01 06:39:51;;;;;;;13.68;8.15;;;;;;;;;;6312715;28;20444;-81
2022/08/01 06:42:52;;;;;;;10.90;7.85;;;;;;;;;;6309559;28;20120;-83
2022/08/01 06:45:54;;;;;;;11.18;8.25;;;;;;;;;;6310006;28;20043;-82
2022/08/01 06:48:56;;;;;;;10.68;8.05;;;;;;;;;;6313998;28;20036;-82
2022/08/01 06:51:57;;;;;;;10.90;8.02;;;;;;;;;;6275891;28;20051;-83
2022/08/01 06:54:59;;;;;;;11.10;8.07;;;;;;;;;;6321610;28;20059;-83
2022/08/01 06:58:01;;;;;;;12.68;7.63;;;;;;;;;;6303030;28;20040;-83
2022/08/01 07:01:07;;;;;;;10.10;7.78;;;;;;;;;;6281694;28;20463;-81
2022/08/01 07:04:09;;;;;;;11.38;8.00;;;;;;;;;;6315395;28;20395;-82
2022/08/01 07:07:10;;;;;;;10.82;7.88;;;;;;;;;;6315393;28;20064;-81
2022/08/01 07:10:12;;;;;;;10.32;7.60;;;;;;;;;;6303997;28;20131;-83
2022/08/01 07:13:18;;;;;;;10.00;6.93;;;;;;;;;;6294390;28;20055;-83
2022/08/01 07:16:19;;;;;;;11.05;7.88;;;;;;;;;;6299973;28;20059;-81
2022/08/01 07:19:21;;;;;;;9.98;8.38;;;;;;;;;;6302079;28;20117;-84
2022/08/01 07:22:23;;;;;;;8.75;7.47;;;;;;;;;;6310581;28;20063;-82
2022/08/01 07:25:24;;;;;;;8.18;7.28;;;;;;;;;;6318724;28;20050;-80
2022/08/01 07:28:26;;;;;;;7.18;6.03;;;;;;;;;;6317377;28;20059;-80
2022/08/01 07:31:28;;;;;;;9.75;6.97;;;;;;;;;;6324568;28;20067;-79
2022/08/01 07:34:32;;;;;;;10.27;6.78;;;;;;;;;;6318423;28;20099;-79
2022/08/01 07:37:34;;;;;;;8.57;6.85;;;;;;;;;;6288315;28;20047;-80
2022/08/01 07:40:49;;;;;;;10.75;6.43;;;;;;;;;;6315839;28;20056;-80
2022/08/01 07:43:51;;;;;;;8.77;7.00;;;;;;;;;;6298304;28;20051;-79
2022/08/01 07:46:59;;;;;;;8.68;6.68;;;;;;;;;;6300086;28;20062;-81
2022/08/01 07:50:01;;;;;;;8.40;7.18;;;;;;;;;;6300353;28;20527;-79
2022/08/01 07:53:04;;;;;;;9.90;7.15;;;;;;;;;;6318050;28;20063;-80
2022/08/01 07:56:06;;;;;;;7.38;6.38;;;;;;;;;;6318559;28;20074;-80
2022/08/01 07:59:07;;;;;;;6.72;5.53;;;;;;;;;;6294125;28;20174;-79
2022/08/01 08:02:09;;;;;;;6.75;5.93;;;;;;;;;;6316919;28;20040;-79
2022/08/01 08:05:12;;;;;;;6.97;6.28;;;;;;;;;;6303962;28;20052;-80
2022/08/01 08:08:15;;;;;;;5.57;5.07;;;;;;;;;;6330578;28;20028;-80
2022/08/01 08:11:17;;;;;;;7.22;5.35;;;;;;;;;;6329909;28;20047;-80
2022/08/01 08:14:19;;;;;;;5.70;5.13;;;;;;;;;;6327444;28;20039;-80
2022/08/01 08:17:21;;;;;;;6.57;5.90;;;;;;;;;;6329534;28;20055;-79
2022/08/01 08:20:24;;;;;;;7.13;6.20;;;;;;;;;;6303801;28;20060;-80
2022/08/01 08:26:57;;;;;;;7.15;6.20;;;;;;;;;;6309379;28;20050;-80
2022/08/01 08:29:59;;;;;;;6.97;5.78;;;;;;;;;;6305143;28;20055;-80
2022/08/01 08:33:01;;;;;;;5.67;5.17;;;;;;;;;;6316552;28;20059;-80
2022/08/01 08:36:03;;;;;;;5.32;4.82;;;;;;;;;;6314171;28;20040;-80
2022/08/01 08:39:05;;;;;;;6.13;4.80;;;;;;;;;;6313201;28;20056;-79
2022/08/01 08:42:07;;;;;;;6.07;5.10;;;;;;;;;;6308881;28;20071;-79
2022/08/01 08:45:10;;;;;;;7.20;5.20;;;;;;;;;;6310032;28;20104;-80
2022/08/01 08:48:13;;;;;;;6.07;5.57;;;;;;;;;;6292044;28;20070;-79
2022/08/01 08:51:18;;;;;;;5.50;4.95;;;;;;;;;;6311305;28;20481;-79
2022/08/01 08:54:23;;;;;;;6.63;4.70;;;;;;;;;;6317280;28;20065;-79
2022/08/01 08:57:32;;;;;;;7.50;5.27;;;;;;;;;;6302143;28;20048;-78
2022/08/01 09:00:35;;;;;;;6.28;4.95;;;;;;;;;;6311409;28;20087;-77
2022/08/01 09:03:37;;;;;;;5.50;4.95;;;;;;;;;;6319265;28;20057;-80
2022/08/01 09:06:39;;;;;;;8.32;4.78;;;;;;;;;;6315589;28;20050;-77
2022/08/01 09:09:41;;;;;;;8.05;5.47;;;;;;;;;;6287876;28;20051;-77
2022/08/01 09:13:03;;;;;;;5.85;5.25;;;;;;;;;;6307735;28;20036;-78
2022/08/01 09:16:05;;;;;;;5.13;4.65;;;;;;;;;;6313389;28;20055;-79
2022/08/01 09:19:19;;;;;;;5.80;4.70;;;;;;;;;;6320104;28;20063;-80
2022/08/01 09:22:40;;;;;;;7.45;4.85;;;;;;;;;;6302326;28;20136;-81
2022/08/01 09:25:52;;;;;;;5.28;4.68;;;;;;;;;;6326436;28;20518;-80
2022/08/01 09:28:59;;;;;;;5.32;4.68;;;;;;;;;;6296836;28;20059;-80
2022/08/01 09:32:05;;;;;;;4.90;4.20;;;;;;;;;;6324364;28;20054;-80
2022/08/01 09:35:32;;;;;;;4.80;4.40;;;;;;;;;;6301233;28;20047;-80
2022/08/01 09:38:44;;;;;;;4.35;3.95;;;;;;;;;;6308702;28;20046;-80
2022/08/01 09:41:55;;;;;;;4.43;4.03;;;;;;;;;;6321257;28;20044;-80
2022/08/01 09:44:57;;;;;;;5.03;4.50;;;;;;;;;;6302985;28;20110;-80
2022/08/01 09:48:06;;;;;;;4.43;4.03;;;;;;;;;;6321186;28;20047;-80
2022/08/01 09:51:12;;;;;;;4.60;3.75;;;;;;;;;;6329511;28;20055;-80
2022/08/01 09:54:34;;;;;;;4.32;3.92;;;;;;;;;;6276630;28;20060;-80
2022/08/01 09:57:36;;;;;;;5.45;4.15;;;;;;;;;;6307624;28;20063;-81
2022/08/01 10:00:39;;;;;;;8.00;3.92;;;;;;;;;;6307601;28;20514;-81
2022/08/01 10:03:46;;;;;;;5.57;4.03;;;;;;;;;;6292700;28;20051;-80
2022/08/01 10:06:52;;;;;;;6.18;4.03;;;;;;;;;;6311559;28;20494;-80
2022/08/01 10:10:10;;;;;;;4.82;4.28;;;;;;;;;;6301996;28;20477;-80
2022/08/01 10:13:12;;;;;;;5.90;4.50;;;;;;;;;;6313820;28;20054;-80
2022/08/01 10:16:15;;;;;;;4.57;4.10;;;;;;;;;;6311839;28;20114;-79
2022/08/01 10:19:18;;;;;;;;;;;;;;;;;;6308074;28;20060;-78
2022/08/01 10:22:23;;;;;;;4.38;3.97;;;;;;;;;;6317378;28;19967;-79
2022/08/01 10:25:28;;;;;;;4.60;3.83;;;;;;;;;;6320682;28;20044;-79
2022/08/01 10:28:47;;;;;;;4.60;4.15;;;;;;;;;;6291331;28;20127;-79
2022/08/01 10:31:49;;;;;;;3.83;3.53;;;;;;;;;;6317358;28;20623;-79
2022/08/01 10:34:54;;;;;;;4.55;3.50;;;;;;;;;;6330548;28;20040;-79
2022/08/01 10:37:57;;;;;;;3.65;3.22;;;;;;;;;;6313218;28;20085;-81
2022/08/01 10:41:02;;;;;;;3.55;3.13;;;;;;;;;;6300558;28;20196;-79
2022/08/01 10:44:09;;;;;;;3.60;3.30;;;;;;;;;;6318596;28;20498;-78
2022/08/01 10:47:14;;;;;;;4.43;3.60;;;;;;;;;;6318284;28;20487;-78
2022/08/01 10:50:43;;;;;;;3.77;3.40;;;;;;;;;;6316118;28;20052;-79
2022/08/01 10:53:54;;;;;;;3.58;3.28;;;;;;;;;;6298343;28;20052;-80
2022/08/01 10:57:01;;;;;;;3.13;2.83;;;;;;;;;;6295860;28;20046;-81
2022/08/01 11:00:04;;;;;;;3.47;3.10;;;;;;;;;;6298037;28;20124;-79
2022/08/01 11:03:06;;;;;;;3.95;3.13;;;;;;;;;;6291627;28;20410;-77
2022/08/01 11:06:16;;;;;;;4.28;3.20;;;;;;;;;;6298342;28;20175;-77
2022/08/01 11:09:27;;;;;;;5.00;3.40;;;;;;;;;;6295038;28;20693;-77
2022/08/01 11:12:39;;;;;;;3.28;3.05;;;;;;;;;;6304203;28;20046;-77
2022/08/01 11:15:41;;;;;;;3.05;2.75;;;;;;;;;;6312876;28;20129;-78
2022/08/01 11:18:51;;;;;;;3.60;3.03;;;;;;;;;;6314475;28;20040;-78
2022/08/01 11:21:52;;;;;;;2.75;2.55;;;;;;;;;;6315070;28;20040;-76
2022/08/01 11:25:01;;;;;;;3.30;3.00;;;;;;;;;;6319302;28;20097;-77
2022/08/01 11:28:17;;;;;;;3.72;3.10;;;;;;;;;;6296340;28;20063;-77
2022/08/01 11:31:31;;;;;;;3.95;3.00;;;;;;;;;;6314604;28;20060;-78
2022/08/01 11:34:55;;;;;;;4.32;3.50;;;;;;;;;;6295400;28;20623;-79
2022/08/01 11:38:24;;;;;;;3.58;3.28;;;;;;;;;;6318559;28;20124;-78
2022/08/01 11:41:29;;;;;;;3.90;3.60;;;;;;;;;;6318908;28;20039;-78
2022/08/01 11:44:50;;;;;;;3.70;3.40;;;;;;;;;;6304785;28;20047;-78
2022/08/01 11:47:51;;;;;;;4.00;3.45;;;;;;;;;;6315176;28;20052;-77
2022/08/01 11:50:54;;;;;;;4.10;3.80;;;;;;;;;;6318546;28;20053;-77
2022/08/01 11:53:58;;;;;;;4.20;3.80;;;;;;;;;;6301324;28;20566;-77
2022/08/01 11:57:05;;;;;;;4.20;3.80;;;;;;;;;;6308793;28;20051;-77
2022/08/01 12:00:10;;;;;;;4.85;4.32;;;;;;;;;;6315484;28;20043;-77
2022/08/01 12:03:16;;;;;;;4.65;4.25;;;;;;;;;;6298575;28;20570;-77
2022/08/01 12:06:33;;;;;;;4.25;3.88;;;;;;;;;;6317200;28;20106;-77
2022/08/01 12:09:35;;;;;;;4.40;3.60;;;;;;;;;;6318773;28;20133;-78
2022/08/01 12:12:43;;;;;;;3.63;3.15;;;;;;;;;;6315954;28;20180;-77
2022/08/01 12:15:45;;;;;;;3.80;3.50;;;;;;;;;;6314515;28;20070;-77
2022/08/01 12:18:47;;;;;;;3.70;3.40;;;;;;;;;;6320154;28;20048;-77
2022/08/01 12:22:10;;;;;;;4.88;3.40;;;;;;;;;;6297187;28;20487;-78
2022/08/01 12:25:17;;;;;;;3.58;3.00;;;;;;;;;;6288574;28;20060;-77
2022/08/01 12:28:18;;;;;;;4.28;3.03;;;;;;;;;;6299086;28;20072;-77
2022/08/01 12:31:31;;;;;;;3.55;3.22;;;;;;;;;;6321824;28;20047;-77
2022/08/01 12:34:33;;;;;;;;;;;;;;;;;;6324840;28;20120;-78
2022/08/01 12:37:40;;;;;;;3.00;2.72;;;;;;;;;;6303727;28;19962;-78
2022/08/01 12:40:44;;;;;;;3.22;3.03;;;;;;;;;;6311075;28;20498;-78
2022/08/01 12:43:47;;;;;;;3.00;2.80;;;;;;;;;;6307516;28;20413;-78
2022/08/01 12:46:49;;;;;;;3.00;2.70;;;;;;;;;;6278620;28;21680;-77
2022/08/01 12:49:51;;;;;;;3.38;3.08;;;;;;;;;;6300369;28;20048;-80
2022/08/01 12:52:52;;;;;;;3.95;2.92;;;;;;;;;;6317236;28;20071;-78
2022/08/01 12:55:55;;;;;;;3.00;2.80;;;;;;;;;;6322267;28;20075;-77
2022/08/01 12:59:00;;;;;;;3.70;2.90;;;;;;;;;;6293838;28;20395;-77
2022/08/01 13:02:08;;;;;;;2.97;2.78;;;;;;;;;;6313520;28;20395;-77
2022/08/01 13:05:11;;;;;;;3.15;2.95;;;;;;;;;;6311914;28;20059;-77
2022/08/01 13:08:17;;;;;;;3.88;3.00;;;;;;;;;;6312577;28;20040;-77
2022/08/01 13:11:19;;;;;;;3.42;3.13;;;;;;;;;;6318973;28;20600;-78
2022/08/01 13:14:28;;;;;;;;;;;;;;;;;;6311245;28;20141;-77
2022/08/01 13:17:38;;;;;;;2.75;2.53;;;;;;;;;;6293449;28;19927;-78
2022/08/01 13:20:40;;;;;;;5.10;2.80;;;;;;;;;;6320932;28;20108;-79
2022/08/01 13:24:02;;;;;;;2.90;2.70;;;;;;;;;;6315708;28;20052;-77
2022/08/01 13:27:05;;;;;;;3.03;2.63;;;;;;;;;;6294645;28;20044;-76
2022/08/01 13:30:18;;;;;;;2.90;2.70;;;;;;;;;;6308228;28;20697;-77
2022/08/01 13:33:20;;;;;;;3.05;2.85;;;;;;;;;;6311803;28;20127;-76
2022/08/01 13:36:21;;;;;;;2.47;2.28;;;;;;;;;;6311517;28;20096;-77
2022/08/01 13:39:41;;;;;;;2.70;2.50;;;;;;;;;;6312807;28;20055;-77
2022/08/01 13:42:43;;;;;;;3.22;2.75;;;;;;;;;;6302616;28;20482;-77
2022/08/01 13:45:47;;;;;;;2.92;2.47;;;;;;;;;;6311283;28;20134;-77
2022/08/01 13:48:48;;;;;;;3.17;2.65;;;;;;;;;;6313500;28;20047;-78
2022/08/01 13:51:51;;;;;;;3.10;2.40;;;;;;;;;;6295713;28;20063;-77
2022/08/01 13:54:53;;;;;;;2.70;2.50;;;;;;;;;;6309861;28;20032;-77
2022/08/01 13:57:54;;;;;;;2.60;2.40;;;;;;;;;;6308646;28;20206;-78
2022/08/01 14:00:56;;;;;;;2.85;2.58;;;;;;;;;;6281527;28;20135;-77
2022/08/01 14:03:58;;;;;;;4.97;2.72;;;;;;;;;;6306854;28;20387;-76
2022/08/01 14:07:00;;;;;;;;;;;;;;;;;;6313788;28;20040;-76
2022/08/01 14:10:06;;;;;;;2.40;2.20;;;;;;;;;;6306483;28;20005;-76
2022/08/01 14:13:19;;;;;;;2.85;2.20;;;;;;;;;;6310623;28;20044;-77
2022/08/01 14:16:24;;;;;;;3.15;2.25;;;;;;;;;;6317154;28;20044;-77
2022/08/01 14:19:25;;;;;;;3.10;2.70;;;;;;;;;;6318377;28;20081;-77
2022/08/01 14:22:40;;;;;;;2.70;2.40;;;;;;;;;;6317508;28;20040;-76
2022/08/01 14:25:42;;;;;;;3.47;2.40;;;;;;;;;;6316480;28;20054;-78
2022/08/01 14:29:03;;;;;;;2.67;2.47;;;;;;;;;;6312455;28;20236;-78
2022/08/01 14:32:05;;;;;;;2.77;2.57;;;;;;;;;;6311927;28;20131;-77
2022/08/01 14:35:08;;;;;;;;;;;;;;;;;;6298280;28;20595;-78
2022/08/01 14:38:09;;;;;;;2.43;2.23;;;;;;;;;;6310213;28;20516;-78
2022/08/01 14:41:11;;;;;;;3.10;2.22;;;;;;;;;;6297101;28;20463;-77
2022/08/01 14:44:13;;;;;;;2.20;2.00;;;;;;;;;;6285217;28;20075;-77
2022/08/01 14:47:15;;;;;;;2.28;2.00;;;;;;;;;;6306827;28;20044;-77
2022/08/01 14:50:23;;;;;;;3.22;1.88;;;;;;;;;;6303009;28;20032;-78
2022/08/01 14:53:25;;;;;;;2.25;2.05;;;;;;;;;;6299922;28;20031;-78
2022/08/01 14:56:27;;;;;;;2.15;1.95;;;;;;;;;;6323380;28;20075;-78
2022/08/01 14:59:28;;;;;;;4.82;2.45;;;;;;;;;;6304193;28;20116;-78
2022/08/01 15:02:30;;;;;;;2.22;2.03;;;;;;;;;;6305490;28;20071;-78
2022/08/01 15:05:32;;;;;;;2.55;2.22;;;;;;;;;;6300246;28;20048;-78
2022/08/01 15:08:35;;;;;;;2.80;2.60;;;;;;;;;;6319073;28;20103;-79
2022/08/01 15:11:37;;;;;;;3.15;2.58;;;;;;;;;;6314565;28;20048;-79
2022/08/01 15:14:47;;;;;;;2.65;2.45;;;;;;;;;;6308516;28;20185;-80
2022/08/01 15:17:51;;;;;;;2.75;2.55;;;;;;;;;;6318002;28;20077;-79
2022/08/01 15:20:53;;;;;;;2.72;2.53;;;;;;;;;;6291019;28;20444;-79
2022/08/01 15:23:55;;;;;;;3.65;2.28;;;;;;;;;;6303416;28;20072;-78
2022/08/01 15:26:56;;;;;;;2.67;2.10;;;;;;;;;;6313202;28;20056;-77
2022/08/01 15:29:58;;;;;;;2.38;2.17;;;;;;;;;;6312064;28;20129;-77
2022/08/01 15:33:00;;;;;;;2.20;2.00;;;;;;;;;;6311766;28;20040;-77
2022/08/01 15:36:02;;;;;;;4.70;2.10;;;;;;;;;;6289255;28;20090;-77
2022/08/01 15:39:03;;;;;;;3.25;2.25;;;;;;;;;;6285979;28;20535;-77
2022/08/01 15:42:14;;;;;;;2.87;2.20;;;;;;;;;;6287021;28;20631;-77
2022/08/01 15:45:27;;;;;;;2.40;2.20;;;;;;;;;;6289139;28;20747;-76
2022/08/01 15:48:48;;;;;;;3.28;2.38;;;;;;;;;;6290753;28;20107;-77
2022/08/01 15:51:50;;;;;;;2.47;2.00;;;;;;;;;;6296510;28;20509;-78
2022/08/01 15:54:52;;;;;;;1.90;1.80;;;;;;;;;;6314155;28;20051;-77
2022/08/01 15:57:54;;;;;;;2.13;1.93;;;;;;;;;;6293583;28;20431;-77
2022/08/01 16:00:55;;;;;;;2.10;1.90;;;;;;;;;;6297279;28;20590;-77
2022/08/01 16:03:57;;;;;;;2.17;1.98;;;;;;;;;;6315460;28;20093;-76
2022/08/01 16:07:00;;;;;;;3.03;1.98;;;;;;;;;;6293565;28;20166;-77
2022/08/01 16:10:01;;;;;;;2.17;1.98;;;;;;;;;;6298194;28;20126;-77
2022/08/01 16:13:03;;;;;;;1.80;1.70;;;;;;;;;;6306332;28;20036;-78
2022/08/01 16:16:09;;;;;;;2.20;2.00;;;;;;;;;;6314923;28;20079;-78
2022/08/01 16:19:10;;;;;;;2.03;1.83;;;;;;;;;;6292670;28;20108;-77
2022/08/01 16:22:19;;;;;;;2.10;1.70;;;;;;;;;;6321002;28;20054;-77
2022/08/01 16:25:21;;;;;;;2.03;1.87;;;;;;;;;;6319036;28;20546;-78
2022/08/01 16:28:23;;;;;;;2.20;2.00;;;;;;;;;;6285415;28;20220;-77
2022/08/01 16:31:25;;;;;;;2.08;1.88;;;;;;;;;;6306063;28;20131;-77
2022/08/01 16:34:47;;;;;;;2.70;2.13;;;;;;;;;;6319678;28;20055;-78
2022/08/01 16:37:49;;;;;;;2.03;1.80;;;;;;;;;;6297787;28;20444;-82
2022/08/01 16:40:51;;;;;;;3.10;2.20;;;;;;;;;;6311695;28;20047;-79
2022/08/01 16:43:53;;;;;;;2.08;1.95;;;;;;;;;;6292852;28;20040;-77
2022/08/01 16:46:55;;;;;;;2.10;2.00;;;;;;;;;;6303895;28;20125;-78
2022/08/01 16:49:56;;;;;;;2.17;1.80;;;;;;;;;;6306819;28;20116;-77
2022/08/01 16:52:58;;;;;;;1.90;1.80;;;;;;;;;;6307175;28;20169;-79
2022/08/01 16:56:00;;;;;;;3.58;1.90;;;;;;;;;;6313969;28;20048;-77
2022/08/01 16:59:01;;;;;;;2.00;1.90;;;;;;;;;;6319113;28;20100;-78
2022/08/01 17:02:03;;;;;;;2.03;1.70;;;;;;;;;;6303661;28;20074;-78
2022/08/01 17:05:06;;;;;;;2.10;1.63;;;;;;;;;;6320905;28;20044;-77
2022/08/01 17:08:13;;;;;;;1.75;1.65;;;;;;;;;;6279383;28;20445;-77
2022/08/01 17:11:14;;;;;;;2.30;2.00;;;;;;;;;;6285883;28;20076;-78
2022/08/01 17:14:16;;;;;;;3.37;1.90;;;;;;;;;;6320628;28;20051;-77
2022/08/01 17:17:20;;;;;;;2.90;1.90;;;;;;;;;;6314528;28;20047;-77
2022/08/01 17:20:24;;;;;;;3.28;2.55;;;;;;;;;;6301573;28;20048;-77
2022/08/01 17:23:26;;;;;;;2.55;1.70;;;;;;;;;;6294676;28;20040;-78
2022/08/01 17:26:30;;;;;;;1.83;1.70;;;;;;;;;;6288313;28;20064;-77
2022/08/01 17:29:34;;;;;;;3.22;2.00;;;;;;;;;;6299223;28;20127;-78
2022/08/01 17:32:46;;;;;;;1.75;1.60;;;;;;;;;;6315272;28;20804;-78
2022/08/01 17:35:48;;;;;;;2.10;1.60;;;;;;;;;;6309082;28;20040;-78
2022/08/01 17:38:50;;;;;;;2.03;1.80;;;;;;;;;;6323267;28;20082;-78
2022/08/01 17:41:52;;;;;;;1.95;1.73;;;;;;;;;;6294008;28;20040;-77
2022/08/01 17:44:55;;;;;;;1.80;1.55;;;;;;;;;;6316387;28;20181;-78
2022/08/01 17:47:57;;;;;;;2.60;1.77;;;;;;;;;;6315303;28;20051;-78
2022/08/01 17:50:59;;;;;;;1.60;1.50;;;;;;;;;;6326916;28;20131;-77
2022/08/01 17:54:01;;;;;;;2.70;1.70;;;;;;;;;;6327991;28;20059;-78
2022/08/01 17:57:02;;;;;;;3.47;2.00;;;;;;;;;;6320491;28;20055;-78
2022/08/01 18:00:09;;;;;;;2.17;1.98;;;;;;;;;;6313657;28;20048;-77
2022/08/01 18:03:11;;;;;;;;;;;;;;;;;;6305192;28;20047;-77
2022/08/01 18:06:16;;;;;;;2.70;2.03;;;;;;;;;;6297391;28;19924;-78
2022/08/01 18:09:18;;;;;;;2.65;2.38;;;;;;;;;;6298209;28;20506;-78
2022/08/01 18:12:20;;;;;;;2.58;2.38;;;;;;;;;;6320265;28;20048;-77
2022/08/01 18:15:23;;;;;;;3.38;2.25;;;;;;;;;;6303816;28;20051;-77
2022/08/01 18:18:27;;;;;;;3.05;2.33;;;;;;;;;;6318699;28;20131;-78
2022/08/01 18:21:34;;;;;;;3.55;2.30;;;;;;;;;;6316138;28;20046;-78
2022/08/01 18:24:41;;;;;;;2.75;2.13;;;;;;;;;;6321446;28;20051;-78
2022/08/01 18:27:46;;;;;;;2.30;2.15;;;;;;;;;;6303917;28;20077;-78
2022/08/01 18:31:10;;;;;;;2.55;2.35;;;;;;;;;;6314197;28;20052;-78